createdAt,value
2023-03-11T00:02:09.253Z,21.80
2023-03-11T00:04:40.879Z,21.30
2023-03-11T00:07:12.617Z,24.63
2023-03-11T00:09:43.320Z,29.55
2023-03-11T00:12:13.639Z,29.40
2023-03-11T00:14:44.110Z,30.10
2023-03-11T00:17:15.037Z,20.85
2023-03-11T00:19:45.888Z,20.70
2023-03-11T00:22:16.690Z,16.60
2023-03-11T00:24:47.096Z,15.23
2023-03-11T00:27:20.915Z,13.18
2023-03-11T00:29:51.424Z,14.57
2023-03-11T00:32:22.714Z,13.15
2023-03-11T00:34:53.236Z,12.85
2023-03-11T00:37:23.674Z,13.52
2023-03-11T00:39:53.935Z,13.25
2023-03-11T00:42:24.835Z,15.13
2023-03-11T00:44:55.190Z,14.75
2023-03-11T00:47:25.987Z,12.82
2023-03-11T00:49:56.922Z,12.30
2023-03-11T00:52:27.766Z,12.25
2023-03-11T00:54:59.683Z,12.52
2023-03-11T00:57:30.408Z,12.23
2023-03-11T01:00:01.522Z,12.32
2023-03-11T01:02:32.686Z,12.07
2023-03-11T01:05:03.378Z,12.10
2023-03-11T01:07:34.725Z,11.65
2023-03-11T01:10:08.887Z,12.45
2023-03-11T01:12:39.643Z,12.65
2023-03-11T01:15:13.509Z,13.27
2023-03-11T01:17:44.064Z,14.35
2023-03-11T01:20:15.649Z,17.35
2023-03-11T01:22:56.608Z,14.27
2023-03-11T01:25:27.601Z,14.30
2023-03-11T01:27:59.555Z,13.45
2023-03-11T01:30:30.837Z,13.73
2023-03-11T01:33:01.923Z,14.77
2023-03-11T01:35:33.450Z,13.32
2023-03-11T01:38:04.171Z,14.95
2023-03-11T01:40:41.577Z,14.07
2023-03-11T01:43:41.963Z,14.15
2023-03-11T01:46:25.819Z,14.43
2023-03-11T01:48:58.762Z,15.55
2023-03-11T01:51:44.119Z,14.75
2023-03-11T01:54:20.132Z,14.68
2023-03-11T01:56:51.668Z,13.75
2023-03-11T01:59:28.836Z,15.43
2023-03-11T02:02:11.133Z,15.27
2023-03-11T02:04:44.104Z,15.70
2023-03-11T02:07:20.551Z,14.43
2023-03-11T02:09:53.982Z,14.65
2023-03-11T02:12:34.916Z,14.10
2023-03-11T02:15:13.673Z,15.02
2023-03-11T02:17:48.371Z,15.30
2023-03-11T02:20:54.165Z,16.33
2023-03-11T02:23:28.160Z,15.20
2023-03-11T02:26:28.128Z,15.18
2023-03-11T02:28:59.588Z,16.88
2023-03-11T02:31:30.895Z,15.35
2023-03-11T02:34:03.584Z,15.57
2023-03-11T02:36:43.202Z,16.27
2023-03-11T02:39:17.308Z,16.40
2023-03-11T02:41:48.556Z,19.40
2023-03-11T02:44:19.895Z,17.15
2023-03-11T02:46:50.264Z,18.17
2023-03-11T02:49:22.458Z,17.25
2023-03-11T02:51:56.221Z,17.80
2023-03-11T02:54:27.601Z,18.10
2023-03-11T02:56:59.171Z,17.30
2023-03-11T02:59:31.312Z,18.52
2023-03-11T03:02:04.896Z,18.75
2023-03-11T03:04:45.536Z,19.08
2023-03-11T03:07:17.474Z,19.33
2023-03-11T03:09:48.661Z,18.85
2023-03-11T03:12:22.376Z,19.42
2023-03-11T03:14:53.089Z,19.50
2023-03-11T03:17:25.526Z,20.75
2023-03-11T03:19:56.429Z,21.63
2023-03-11T03:22:28.657Z,18.50
2023-03-11T03:25:00.721Z,18.77
2023-03-11T03:27:33.393Z,21.15
2023-03-11T03:30:09.580Z,20.63
2023-03-11T03:32:40.347Z,20.30
2023-03-11T03:35:14.884Z,20.40
2023-03-11T03:38:17.623Z,20.67
2023-03-11T03:40:48.875Z,21.33
2023-03-11T03:43:22.883Z,21.42
2023-03-11T03:46:01.798Z,20.80
2023-03-11T03:48:36.432Z,22.85
2023-03-11T03:51:12.018Z,21.20
2023-03-11T03:53:50.410Z,21.63
2023-03-11T03:56:21.266Z,20.30
2023-03-11T03:58:52.221Z,19.60
2023-03-11T04:01:23.584Z,19.80
2023-03-11T04:03:57.017Z,19.63
2023-03-11T04:06:29.681Z,18.40
2023-03-11T04:09:05.508Z,18.52
2023-03-11T04:11:47.337Z,18.15
2023-03-11T04:14:23.099Z,17.75
2023-03-11T04:16:59.262Z,17.77
2023-03-11T04:19:31.244Z,19.83
2023-03-11T04:22:02.397Z,17.05
2023-03-11T04:24:33.151Z,18.25
2023-03-11T04:27:04.057Z,18.70
2023-03-11T04:29:36.900Z,18.48
2023-03-11T04:32:08.150Z,18.15
2023-03-11T04:34:39.494Z,18.98
2023-03-11T04:37:10.221Z,19.15
2023-03-11T04:39:41.087Z,19.42
2023-03-11T04:42:14.923Z,19.08
2023-03-11T04:44:47.077Z,18.23
2023-03-11T04:47:19.453Z,18.20
2023-03-11T04:49:50.107Z,20.10
2023-03-11T04:52:21.136Z,18.58
2023-03-11T04:54:52.106Z,18.48
2023-03-11T04:57:23.507Z,19.10
2023-03-11T04:59:54.041Z,20.17
2023-03-11T05:02:25.337Z,19.65
2023-03-11T05:05:04.456Z,21.52
2023-03-11T05:07:35.835Z,20.23
2023-03-11T05:10:07.707Z,19.85
2023-03-11T05:12:41.040Z,25.40
2023-03-11T05:15:12.087Z,22.00
2023-03-11T05:17:43.024Z,20.40
2023-03-11T05:20:15.765Z,22.88
2023-03-11T05:22:47.070Z,20.42
2023-03-11T05:25:17.698Z,21.33
2023-03-11T05:27:48.687Z,24.83
2023-03-11T05:30:21.848Z,23.17
2023-03-11T05:32:53.211Z,21.33
2023-03-11T05:35:24.109Z,18.88
2023-03-11T05:37:55.868Z,18.73
2023-03-11T05:40:31.753Z,19.42
2023-03-11T05:43:02.942Z,16.52
2023-03-11T05:45:37.923Z,16.65
2023-03-11T05:48:09.660Z,15.93
2023-03-11T05:50:50.386Z,13.48
2023-03-11T05:53:25.728Z,15.02
2023-03-11T05:56:00.438Z,12.02
2023-03-11T05:58:33.558Z,11.63
2023-03-11T06:01:11.300Z,12.65
2023-03-11T06:03:42.673Z,11.00
2023-03-11T06:06:15.945Z,12.15
2023-03-11T06:08:50.799Z,11.63
2023-03-11T06:11:27.891Z,10.80
2023-03-11T06:14:00.006Z,11.77
2023-03-11T06:16:40.809Z,11.40
2023-03-11T06:19:14.036Z,10.57
2023-03-11T06:21:49.114Z,9.40
2023-03-11T06:24:21.040Z,9.95
2023-03-11T06:26:55.471Z,10.05
2023-03-11T06:29:29.932Z,10.20
2023-03-11T06:32:01.182Z,10.55
2023-03-11T06:34:32.779Z,10.05
2023-03-11T06:37:06.970Z,9.45
2023-03-11T06:39:37.456Z,10.50
2023-03-11T06:42:12.309Z,10.35
2023-03-11T06:44:45.312Z,9.90
2023-03-11T06:47:15.960Z,10.93
2023-03-11T06:49:46.908Z,10.43
2023-03-11T06:52:17.507Z,11.68
2023-03-11T06:54:48.185Z,12.13
2023-03-11T06:57:20.689Z,13.05
2023-03-11T06:59:52.690Z,11.80
2023-03-11T07:02:29.067Z,11.30
2023-03-11T07:04:59.595Z,10.38
2023-03-11T07:07:30.506Z,10.88
2023-03-11T07:10:05.147Z,11.52
2023-03-11T07:12:35.636Z,11.15
2023-03-11T07:15:06.729Z,11.63
2023-03-11T07:17:38.319Z,11.50
2023-03-11T07:20:09.632Z,12.32
2023-03-11T07:22:40.796Z,12.07
2023-03-11T07:25:11.958Z,13.30
2023-03-11T07:27:43.025Z,12.50
2023-03-11T07:30:14.549Z,12.57
2023-03-11T07:32:45.203Z,12.90
2023-03-11T07:35:16.672Z,12.55
2023-03-11T07:37:50.058Z,12.65
2023-03-11T07:40:21.637Z,12.13
2023-03-11T07:42:52.794Z,12.30
2023-03-11T07:45:25.034Z,12.95
2023-03-11T07:47:55.667Z,12.48
2023-03-11T07:50:28.382Z,12.93
2023-03-11T07:52:59.355Z,13.07
2023-03-11T07:55:30.752Z,12.98
2023-03-11T07:58:01.949Z,12.82
2023-03-11T08:00:32.915Z,13.02
2023-03-11T08:03:03.823Z,12.20
2023-03-11T08:05:35.765Z,12.70
2023-03-11T08:08:07.072Z,10.30
2023-03-11T08:10:41.202Z,12.35
2023-03-11T08:13:11.808Z,12.85
2023-03-11T08:15:42.490Z,12.82
2023-03-11T08:18:13.881Z,13.60
2023-03-11T08:20:48.146Z,13.98
2023-03-11T08:23:18.810Z,12.93
2023-03-11T08:25:49.232Z,13.48
2023-03-11T08:28:20.022Z,12.63
2023-03-11T08:30:50.884Z,12.23
2023-03-11T08:33:21.479Z,16.13
2023-03-11T08:35:52.326Z,13.00
2023-03-11T08:38:23.021Z,12.98
2023-03-11T08:40:54.064Z,12.52
2023-03-11T08:43:24.966Z,13.60
2023-03-11T08:45:55.826Z,13.85
2023-03-11T08:48:26.543Z,10.98
2023-03-11T08:50:58.304Z,9.88
2023-03-11T08:53:31.007Z,8.90
2023-03-11T08:56:02.397Z,9.77
2023-03-11T08:58:32.956Z,10.95
2023-03-11T09:01:03.586Z,9.65
2023-03-11T09:03:43.122Z,10.20
2023-03-11T09:06:16.405Z,9.65
2023-03-11T09:08:48.753Z,11.70
2023-03-11T09:11:20.000Z,11.65
2023-03-11T09:13:51.307Z,10.13
2023-03-11T09:16:24.300Z,10.20
2023-03-11T09:18:57.500Z,12.38
2023-03-11T09:21:27.901Z,10.60
2023-03-11T09:23:58.621Z,11.10
2023-03-11T09:26:32.052Z,9.88
2023-03-11T09:29:05.880Z,9.82
2023-03-11T09:31:36.537Z,10.18
2023-03-11T09:34:07.668Z,10.43
2023-03-11T09:36:38.520Z,10.35
2023-03-11T09:39:09.686Z,10.63
2023-03-11T09:41:57.845Z,10.68
2023-03-11T09:44:54.925Z,11.00
2023-03-11T09:47:56.872Z,11.63
2023-03-11T09:50:55.789Z,10.48
2023-03-11T09:53:43.264Z,10.60
2023-03-11T09:56:22.951Z,10.60
2023-03-11T09:59:05.671Z,10.23
2023-03-11T10:01:47.215Z,11.10
2023-03-11T10:04:51.738Z,9.63
2023-03-11T10:07:25.667Z,10.30
2023-03-11T10:10:00.445Z,10.40
2023-03-11T10:12:53.949Z,11.32
2023-03-11T10:15:41.047Z,10.45
2023-03-11T10:18:36.148Z,11.63
2023-03-11T10:21:22.100Z,12.25
2023-03-11T10:24:21.097Z,11.75
2023-03-11T10:26:58.256Z,11.88
2023-03-11T10:29:32.565Z,11.80
2023-03-11T10:32:43.588Z,11.35
2023-03-11T10:35:20.155Z,12.07
2023-03-11T10:37:57.377Z,12.00
2023-03-11T10:40:37.869Z,12.70
2023-03-11T10:43:18.172Z,12.98
2023-03-11T10:45:52.028Z,13.60
2023-03-11T10:48:24.055Z,13.43
2023-03-11T10:51:11.408Z,13.25
2023-03-11T10:53:49.719Z,14.02
2023-03-11T10:56:37.125Z,13.73
2023-03-11T10:59:45.810Z,13.82
2023-03-11T11:02:31.161Z,14.48
2023-03-11T11:05:23.586Z,13.30
2023-03-11T11:08:06.702Z,16.05
2023-03-11T11:10:38.500Z,14.75
2023-03-11T11:13:16.069Z,16.63
2023-03-11T11:15:56.221Z,15.00
2023-03-11T11:18:38.686Z,24.30
2023-03-11T11:21:17.894Z,81.35
2023-03-11T11:23:53.869Z,54.80
2023-03-11T11:26:26.807Z,79.75
2023-03-11T11:29:21.584Z,127.32
2023-03-11T11:31:54.893Z,49.75
2023-03-11T11:34:36.384Z,47.97
2023-03-11T11:37:07.449Z,35.75
2023-03-11T11:39:52.648Z,33.70
2023-03-11T11:42:24.972Z,22.83
2023-03-11T11:45:03.801Z,20.38
2023-03-11T11:47:38.607Z,18.77
2023-03-11T11:50:17.481Z,16.88
2023-03-11T11:53:10.869Z,16.70
2023-03-11T11:55:49.260Z,16.92
2023-03-11T11:58:20.390Z,25.40
2023-03-11T12:00:59.875Z,47.50
2023-03-11T12:04:07.755Z,26.38
2023-03-11T12:07:05.741Z,27.00
2023-03-11T12:09:42.744Z,33.20
2023-03-11T12:13:06.713Z,20.50
2023-03-11T12:16:12.297Z,20.52
2023-03-11T12:19:19.080Z,19.10
2023-03-11T12:22:14.183Z,17.05
2023-03-11T12:24:49.672Z,19.80
2023-03-11T12:27:23.022Z,16.33
2023-03-11T12:29:57.324Z,40.17
2023-03-11T12:32:48.782Z,22.90
2023-03-11T12:35:33.636Z,22.20
2023-03-11T12:38:42.900Z,17.95
2023-03-11T12:41:16.728Z,28.50
2023-03-11T12:43:50.428Z,18.63
2023-03-11T12:46:22.725Z,17.42
2023-03-11T12:49:14.659Z,19.25
2023-03-11T12:52:08.742Z,18.60
2023-03-11T12:54:43.734Z,17.35
2023-03-11T12:57:20.429Z,17.10
2023-03-11T13:00:19.154Z,15.73
2023-03-11T13:03:17.110Z,15.05
2023-03-11T13:06:05.438Z,14.27
2023-03-11T13:08:41.574Z,14.20
2023-03-11T13:11:33.361Z,16.05
2023-03-11T13:14:33.760Z,18.90
2023-03-11T13:17:34.321Z,17.85
2023-03-11T13:20:07.833Z,17.27
2023-03-11T13:23:08.924Z,18.38
2023-03-11T13:25:46.293Z,16.75
2023-03-11T13:28:35.701Z,18.38
2023-03-11T13:31:44.442Z,16.17
2023-03-11T13:34:18.515Z,15.50
2023-03-11T13:37:16.410Z,14.35
2023-03-11T13:40:15.012Z,13.55
2023-03-11T13:42:53.585Z,15.05
2023-03-11T13:45:29.939Z,12.73
2023-03-11T13:48:05.088Z,13.65
2023-03-11T13:50:53.721Z,15.88
2023-03-11T13:53:30.976Z,14.82
2023-03-11T13:56:01.870Z,14.38
2023-03-11T13:58:32.811Z,14.27
2023-03-11T14:01:04.205Z,13.82
2023-03-11T14:03:42.169Z,13.45
2023-03-11T14:06:22.462Z,13.95
2023-03-11T14:08:58.350Z,13.20
2023-03-11T14:11:30.505Z,15.02
2023-03-11T14:14:02.770Z,14.50
2023-03-11T14:16:44.958Z,15.18
2023-03-11T14:19:20.034Z,15.07
2023-03-11T14:21:56.412Z,15.30
2023-03-11T14:24:30.202Z,15.70
2023-03-11T14:27:03.315Z,15.63
2023-03-11T14:29:37.171Z,14.65
2023-03-11T14:32:24.619Z,14.23
2023-03-11T14:34:55.550Z,14.38
2023-03-11T14:37:40.182Z,13.60
2023-03-11T14:40:25.570Z,13.75
2023-03-11T14:42:58.688Z,13.75
2023-03-11T14:45:35.613Z,13.60
2023-03-11T14:48:09.565Z,13.27
2023-03-11T14:50:40.767Z,12.93
2023-03-11T14:53:26.464Z,12.93
2023-03-11T14:56:01.110Z,12.55
2023-03-11T14:58:32.052Z,13.20
2023-03-11T15:01:12.249Z,12.63
2023-03-11T15:03:51.788Z,12.60
2023-03-11T15:06:26.133Z,13.82
2023-03-11T15:08:59.376Z,14.43
2023-03-11T15:11:30.402Z,14.30
2023-03-11T15:14:39.072Z,14.82
2023-03-11T15:17:42.919Z,15.82
2023-03-11T15:20:37.207Z,16.65
2023-03-11T15:23:08.713Z,16.52
2023-03-11T15:25:41.730Z,16.30
2023-03-11T15:28:32.761Z,16.73
2023-03-11T15:31:32.712Z,16.75
2023-03-11T15:34:31.852Z,17.42
2023-03-11T15:37:07.210Z,17.77
2023-03-11T15:39:39.203Z,18.67
2023-03-11T15:42:09.780Z,17.80
2023-03-11T15:45:25.129Z,18.67
2023-03-11T15:47:59.329Z,18.27
2023-03-11T15:50:46.623Z,19.50
2023-03-11T15:53:21.102Z,19.63
2023-03-11T15:56:08.152Z,18.73
2023-03-11T15:58:39.483Z,20.23
2023-03-11T16:01:11.329Z,20.67
2023-03-11T16:03:42.409Z,23.58
2023-03-11T16:06:12.982Z,22.13
2023-03-11T16:08:45.842Z,20.33
2023-03-11T16:11:17.164Z,20.23
2023-03-11T16:13:47.761Z,20.67
2023-03-11T16:16:19.551Z,21.40
2023-03-11T16:18:50.011Z,17.90
2023-03-11T16:21:23.132Z,21.40
2023-03-11T16:23:54.274Z,17.25
2023-03-11T16:26:25.048Z,18.30
2023-03-11T16:28:57.326Z,25.10
2023-03-11T16:31:31.057Z,36.85
2023-03-11T16:34:01.799Z,36.42
2023-03-11T16:36:32.172Z,46.65
2023-03-11T16:39:03.740Z,34.40
2023-03-11T16:41:45.413Z,32.55
2023-03-11T16:44:15.932Z,29.38
2023-03-11T16:46:46.298Z,22.85
2023-03-11T16:49:16.902Z,18.92
2023-03-11T16:51:47.631Z,17.38
2023-03-11T16:54:17.999Z,16.40
2023-03-11T16:56:51.141Z,15.00
2023-03-11T16:59:21.554Z,14.65
2023-03-11T17:01:52.289Z,14.90
2023-03-11T17:04:23.481Z,14.75
2023-03-11T17:06:53.837Z,16.10
2023-03-11T17:09:27.670Z,16.10
2023-03-11T17:12:01.311Z,18.48
2023-03-11T17:14:33.231Z,19.13
2023-03-11T17:17:04.197Z,19.15
2023-03-11T17:19:35.253Z,18.90
2023-03-11T17:22:06.288Z,19.63
2023-03-11T17:24:37.925Z,19.40
2023-03-11T17:27:08.565Z,18.73
2023-03-11T17:29:41.779Z,18.48
2023-03-11T17:32:17.103Z,18.88
2023-03-11T17:34:48.984Z,18.77
2023-03-11T17:37:22.642Z,20.05
2023-03-11T17:39:52.979Z,18.95
2023-03-11T17:42:24.136Z,19.23
2023-03-11T17:44:57.574Z,19.25
2023-03-11T17:47:28.182Z,18.95
2023-03-11T17:49:58.774Z,19.25
2023-03-11T17:52:29.487Z,19.92
2023-03-11T17:54:59.823Z,18.23
2023-03-11T17:57:35.391Z,20.20
2023-03-11T18:00:15.340Z,21.02
2023-03-11T18:02:46.885Z,21.63
2023-03-11T18:05:18.755Z,20.95
2023-03-11T18:07:49.319Z,19.10
2023-03-11T18:10:22.418Z,18.55
2023-03-11T18:12:52.774Z,19.23
2023-03-11T18:15:25.363Z,18.98
2023-03-11T18:17:57.998Z,19.48
2023-03-11T18:20:28.793Z,19.40
2023-03-11T18:22:59.418Z,17.85
2023-03-11T18:25:30.003Z,19.30
2023-03-11T18:28:00.276Z,18.08
2023-03-11T18:30:30.932Z,17.08
2023-03-11T18:33:01.238Z,18.17
2023-03-11T18:35:32.102Z,17.73
2023-03-11T18:38:02.815Z,17.42
2023-03-11T18:40:33.119Z,17.15
2023-03-11T18:43:03.777Z,17.00
2023-03-11T18:45:34.174Z,16.80
2023-03-11T18:48:04.815Z,18.25
2023-03-11T18:50:35.344Z,17.10
2023-03-11T18:53:05.699Z,16.75
2023-03-11T18:55:39.501Z,16.88
2023-03-11T18:58:10.684Z,16.65
2023-03-11T19:00:41.058Z,16.02
2023-03-11T19:03:14.649Z,16.10
2023-03-11T19:05:50.829Z,16.25
2023-03-11T19:08:22.135Z,15.93
2023-03-11T19:10:53.121Z,14.15
2023-03-11T19:13:23.662Z,14.70
2023-03-11T19:15:54.577Z,15.55
2023-03-11T19:18:26.166Z,15.85
2023-03-11T19:21:06.800Z,15.02
2023-03-11T19:23:40.188Z,14.63
2023-03-11T19:26:10.585Z,15.82
2023-03-11T19:28:41.017Z,15.65
2023-03-11T19:31:11.563Z,15.50
2023-03-11T19:33:42.209Z,15.63
2023-03-11T19:36:13.385Z,16.20
2023-03-11T19:38:43.775Z,15.20
2023-03-11T19:41:16.710Z,16.10
2023-03-11T19:43:47.839Z,16.45
2023-03-11T19:46:22.381Z,16.33
2023-03-11T19:48:57.473Z,15.73
2023-03-11T19:51:32.930Z,16.17
2023-03-11T19:54:09.920Z,16.27
2023-03-11T19:56:41.279Z,16.60
2023-03-11T19:59:11.878Z,16.70
2023-03-11T20:01:43.236Z,15.90
2023-03-11T20:04:15.958Z,17.08
2023-03-11T20:06:46.784Z,16.65
2023-03-11T20:09:18.648Z,16.85
2023-03-11T20:11:54.156Z,15.95
2023-03-11T20:14:24.962Z,15.88
2023-03-11T20:16:55.325Z,16.27
2023-03-11T20:19:25.749Z,16.40
2023-03-11T20:21:56.564Z,16.02
2023-03-11T20:24:28.078Z,16.55
2023-03-11T20:26:58.448Z,15.85
2023-03-11T20:29:28.916Z,15.43
2023-03-11T20:31:59.610Z,18.48
2023-03-11T20:34:31.235Z,19.13
2023-03-11T20:37:01.796Z,19.38
2023-03-11T20:39:32.110Z,18.38
2023-03-11T20:42:02.742Z,17.98
2023-03-11T20:44:33.543Z,18.38
2023-03-11T20:47:04.027Z,18.75
2023-03-11T20:49:34.637Z,18.58
2023-03-11T20:52:05.041Z,18.20
2023-03-11T20:54:35.614Z,18.65
2023-03-11T20:57:06.768Z,18.35
2023-03-11T20:59:37.134Z,19.20
2023-03-11T21:02:07.996Z,18.67
2023-03-11T21:04:42.144Z,17.25
2023-03-11T21:07:12.650Z,18.15
2023-03-11T21:09:43.564Z,18.00
2023-03-11T21:12:16.720Z,17.27
2023-03-11T21:14:47.637Z,18.52
2023-03-11T21:17:21.190Z,17.85
2023-03-11T21:19:51.566Z,17.48
2023-03-11T21:22:22.115Z,16.80
2023-03-11T21:24:54.618Z,17.20
2023-03-11T21:27:28.428Z,16.73
2023-03-11T21:30:00.995Z,17.48
2023-03-11T21:32:33.257Z,16.65
2023-03-11T21:35:04.824Z,16.17
2023-03-11T21:37:38.549Z,17.92
2023-03-11T21:40:09.841Z,17.80
2023-03-11T21:42:40.341Z,19.88
2023-03-11T21:45:11.309Z,19.63
2023-03-11T21:47:42.014Z,17.98
2023-03-11T21:50:13.168Z,18.67
2023-03-11T21:52:43.829Z,19.02
2023-03-11T21:55:14.800Z,18.70
2023-03-11T21:57:45.725Z,18.50
2023-03-11T22:00:17.025Z,18.92
2023-03-11T22:02:47.613Z,19.48
2023-03-11T22:05:18.481Z,20.33
2023-03-11T22:07:58.896Z,18.20
2023-03-11T22:10:32.425Z,19.42
2023-03-11T22:13:02.873Z,21.13
2023-03-11T22:15:33.775Z,24.20
2023-03-11T22:18:04.637Z,26.35
2023-03-11T22:20:35.101Z,27.35
2023-03-11T22:23:05.753Z,27.17
2023-03-11T22:25:36.254Z,26.25
2023-03-11T22:28:06.975Z,25.90
2023-03-11T22:30:37.253Z,25.95
2023-03-11T22:33:11.082Z,26.02
2023-03-11T22:35:42.422Z,26.42
2023-03-11T22:38:13.053Z,27.23
2023-03-11T22:40:44.003Z,29.85
2023-03-11T22:43:15.108Z,33.72
2023-03-11T22:45:46.790Z,30.88
2023-03-11T22:48:17.318Z,31.35
2023-03-11T22:50:48.128Z,29.40
2023-03-11T22:53:18.433Z,28.92
2023-03-11T22:55:48.919Z,26.58
2023-03-11T22:58:19.305Z,25.52
2023-03-11T23:00:50.303Z,26.08
2023-03-11T23:03:21.171Z,26.38
2023-03-11T23:05:52.058Z,23.33
2023-03-11T23:08:22.739Z,25.13
2023-03-11T23:10:53.555Z,24.58
2023-03-11T23:13:24.141Z,25.40
2023-03-11T23:15:54.483Z,25.98
2023-03-11T23:18:28.309Z,24.35
2023-03-11T23:20:59.251Z,24.80
2023-03-11T23:23:30.115Z,24.05
2023-03-11T23:26:01.039Z,24.33
2023-03-11T23:28:32.091Z,24.67
2023-03-11T23:31:05.959Z,23.85
2023-03-11T23:33:37.037Z,23.38
2023-03-11T23:36:14.093Z,25.65
2023-03-11T23:38:45.853Z,25.75
2023-03-11T23:41:21.164Z,24.60
2023-03-11T23:43:51.727Z,24.95
2023-03-11T23:46:22.508Z,26.63
2023-03-11T23:48:53.096Z,26.13
2023-03-11T23:51:23.688Z,29.05
2023-03-11T23:53:54.361Z,27.38
2023-03-11T23:56:24.682Z,22.90
2023-03-11T23:58:55.141Z,19.67
